Terminal Aerodrome Forecast
Issued by NWS

Home | Current Version | Previous Version | Text Only | Print | Product List | Glossary On
Versions: 1 2 3 4 5 6 7 8 9 10 11 12 13 14 15 16 17 18 19 20 21 22 23 24
000
FTUS41 KRLX 300533
TAFCKB
TAF
KCKB 300533Z 3006/3106 VRB03KT P6SM VCSH SCT040
     FM300700 00000KT 5SM SHRA VCTS BKN045CB
     FM301200 VRB03KT 3SM BR BKN025
     FM301400 28004KT P6SM BKN030
     FM301600 29006KT P6SM SCT035=

USA.gov is the U.S. government's official web portal to all federal, state and local government web resources and services.